Time;durP1;ratioP1;P1;durP2;ratioP2;P2;SDS_P1;SDS_P2;PMS_P1;PMS_P2;Temp;Humidity;BMP_temperature;BMP_pressure;BME280_temperature;BME280_humidity;BME280_pressure;Samples;Min_cycle;Max_cycle;Signal;HPM_P1;HPM_P2
2022/09/04 00:01:41;;;;;;;1.40;1.37;;;15.70;99.90;;;;;;5049235;28;20301;-48
2022/09/04 00:04:17;;;;;;;1.70;1.60;;;15.70;99.90;;;;;;5049631;28;20212;-48
2022/09/04 00:06:55;;;;;;;1.97;1.87;;;15.70;99.90;;;;;;5049748;28;20224;-48
2022/09/04 00:09:31;;;;;;;1.60;1.50;;;15.70;99.90;;;;;;5053432;28;20202;-48
2022/09/04 00:12:04;;;;;;;3.47;2.07;;;15.60;99.90;;;;;;5050628;28;20202;-47
2022/09/04 00:14:40;;;;;;;1.17;1.03;;;15.60;99.90;;;;;;5048191;28;20256;-50
2022/09/04 00:17:14;;;;;;;1.10;1.10;;;15.60;99.90;;;;;;5050886;28;20226;-47
2022/09/04 00:19:46;;;;;;;0.90;0.90;;;15.60;99.90;;;;;;5051856;28;20197;-48
2022/09/04 00:22:25;;;;;;;2.00;1.00;;;15.60;99.90;;;;;;5048028;28;20206;-47
2022/09/04 00:24:58;;;;;;;1.60;0.97;;;15.60;99.90;;;;;;5051427;28;20201;-48
2022/09/04 00:27:28;;;;;;;1.10;1.10;;;15.60;99.90;;;;;;5044480;28;20238;-47
2022/09/04 00:30:02;;;;;;;2.10;1.57;;;15.60;99.90;;;;;;5048083;28;20679;-48
2022/09/04 00:32:38;;;;;;;1.00;0.87;;;15.70;99.90;;;;;;5049896;28;20958;-48
2022/09/04 00:35:13;;;;;;;1.13;1.13;;;15.60;99.90;;;;;;5042673;28;20312;-48
2022/09/04 00:37:45;;;;;;;2.10;1.37;;;15.60;99.90;;;;;;5050944;28;20221;-48
2022/09/04 00:40:20;;;;;;;1.73;1.13;;;15.50;99.90;;;;;;5052038;28;20657;-48
2022/09/04 00:43:26;;;;;;;1.37;1.27;;;15.50;99.90;;;;;;5050349;28;20216;-48
2022/09/04 00:46:05;;;;;;;4.23;1.30;;;15.60;99.90;;;;;;5008717;28;20211;-48
2022/09/04 00:49:05;;;;;;;2.00;1.60;;;15.50;99.90;;;;;;5043327;28;20210;-48
2022/09/04 00:51:43;;;;;;;1.27;1.27;;;15.50;99.90;;;;;;5044180;28;20272;-48
2022/09/04 00:54:37;;;;;;;1.20;1.10;;;15.40;99.90;;;;;;5045670;28;20205;-48
2022/09/04 00:57:39;;;;;;;1.43;1.33;;;15.40;99.90;;;;;;5034348;28;20780;-48
2022/09/04 01:00:13;;;;;;;1.33;1.30;;;15.40;99.90;;;;;;5050880;28;20259;-47
2022/09/04 01:03:13;;;;;;;0.80;0.80;;;15.40;99.90;;;;;;5046998;28;20194;-48
2022/09/04 01:05:54;;;;;;;0.77;0.77;;;15.50;99.90;;;;;;5050138;28;20197;-48
2022/09/04 01:08:39;;;;;;;1.33;0.80;;;15.50;99.90;;;;;;5050761;28;20236;-48
2022/09/04 01:11:13;;;;;;;2.30;0.70;;;15.60;99.90;;;;;;5043832;28;20288;-48
2022/09/04 01:13:45;;;;;;;1.00;1.00;;;15.60;99.90;;;;;;5044534;28;20206;-47
2022/09/04 01:16:21;;;;;;;1.17;0.70;;;15.70;99.90;;;;;;5050914;28;20225;-47
2022/09/04 01:18:55;;;;;;;1.70;0.80;;;15.70;99.90;;;;;;5051363;28;20205;-48
2022/09/04 01:21:50;;;;;;;1.90;0.70;;;15.70;99.90;;;;;;5051627;28;20213;-48
2022/09/04 01:24:41;;;;;;;0.80;0.80;;;15.60;99.90;;;;;;5046396;28;20225;-47
2022/09/04 01:27:17;;;;;;;1.00;1.00;;;15.50;99.90;;;;;;5048519;28;20865;-48
2022/09/04 01:29:53;;;;;;;1.53;1.50;;;15.50;99.90;;;;;;5046368;28;20663;-49
2022/09/04 01:32:31;;;;;;;1.50;1.20;;;15.50;99.90;;;;;;5044938;28;20210;-48
2022/09/04 01:35:07;;;;;;;3.30;1.40;;;15.40;99.90;;;;;;5050922;28;20271;-48
2022/09/04 01:37:46;;;;;;;1.40;1.40;;;15.30;99.90;;;;;;5049157;28;20574;-48
2022/09/04 01:40:25;;;;;;;1.60;1.50;;;15.30;99.90;;;;;;5047668;28;20236;-48
2022/09/04 01:42:59;;;;;;;1.73;1.73;;;15.20;99.90;;;;;;5048674;28;20205;-48
2022/09/04 01:45:38;;;;;;;1.73;1.50;;;15.30;99.90;;;;;;5050513;28;20198;-48
2022/09/04 01:48:06;;;;;;;1.33;1.30;;;15.20;99.90;;;;;;5041739;28;20236;-49
2022/09/04 01:50:37;;;;;;;1.70;1.60;;;15.20;99.90;;;;;;5048896;28;20189;-47
2022/09/04 01:53:10;;;;;;;1.17;0.87;;;15.20;99.90;;;;;;5041049;28;20213;-47
2022/09/04 01:55:44;;;;;;;0.70;0.70;;;15.20;99.90;;;;;;5048698;28;20218;-48
2022/09/04 01:58:30;;;;;;;1.17;1.17;;;15.10;99.90;;;;;;5047883;28;20193;-48
2022/09/04 02:01:04;;;;;;;0.80;0.80;;;15.10;99.90;;;;;;5049526;28;20693;-48
2022/09/04 02:03:39;;;;;;;1.17;1.17;;;15.00;99.90;;;;;;5047852;28;20255;-47
2022/09/04 02:06:15;;;;;;;0.90;0.90;;;15.00;99.90;;;;;;5042856;28;20252;-48
2022/09/04 02:08:54;;;;;;;4.13;1.90;;;15.00;99.90;;;;;;5051426;28;20201;-48
2022/09/04 02:11:25;;;;;;;2.20;1.07;;;14.90;99.90;;;;;;5048828;28;20312;-48
2022/09/04 02:14:21;;;;;;;1.13;1.13;;;14.90;99.90;;;;;;5051137;28;20277;-48
2022/09/04 02:17:01;;;;;;;0.90;0.90;;;14.90;99.90;;;;;;5049899;28;20695;-48
2022/09/04 02:19:41;;;;;;;1.30;1.20;;;14.90;99.90;;;;;;5042631;28;20206;-48
2022/09/04 02:22:20;;;;;;;1.50;1.17;;;14.90;99.90;;;;;;5043241;28;20733;-48
2022/09/04 02:24:57;;;;;;;1.17;1.17;;;14.90;99.90;;;;;;5051063;28;20559;-48
2022/09/04 02:27:32;;;;;;;0.67;0.67;;;14.90;99.90;;;;;;5051584;28;20798;-47
2022/09/04 02:30:04;;;;;;;0.80;0.80;;;15.00;99.90;;;;;;5050469;28;20201;-49
2022/09/04 02:32:38;;;;;;;2.93;0.80;;;15.10;99.90;;;;;;5044573;28;20231;-48
2022/09/04 02:35:15;;;;;;;3.30;0.97;;;15.20;99.90;;;;;;5043321;28;20235;-47
2022/09/04 02:37:56;;;;;;;0.87;0.87;;;15.10;99.90;;;;;;5042299;28;20288;-47
2022/09/04 02:40:32;;;;;;;1.90;0.73;;;15.10;99.90;;;;;;5050535;28;20209;-47
2022/09/04 02:43:16;;;;;;;1.50;0.97;;;15.00;99.90;;;;;;5049549;28;20202;-47
2022/09/04 02:45:54;;;;;;;0.90;0.90;;;15.00;99.90;;;;;;5044734;28;20284;-48
2022/09/04 02:48:28;;;;;;;1.00;1.00;;;14.90;99.90;;;;;;5053096;28;20734;-46
2022/09/04 02:51:13;;;;;;;1.00;1.00;;;14.90;99.90;;;;;;5049377;28;20213;-48
2022/09/04 02:53:50;;;;;;;1.20;1.20;;;14.90;99.90;;;;;;5046671;28;20247;-47
2022/09/04 02:56:30;;;;;;;0.80;0.80;;;14.90;99.90;;;;;;5049461;28;20229;-47
2022/09/04 02:59:16;;;;;;;4.63;1.03;;;14.80;99.90;;;;;;5051064;28;20198;-47
2022/09/04 03:01:53;;;;;;;1.10;1.10;;;14.80;99.90;;;;;;5048750;28;20210;-46
2022/09/04 03:04:29;;;;;;;0.90;0.90;;;14.70;99.90;;;;;;5048501;28;20208;-49
2022/09/04 03:07:03;;;;;;;2.20;0.93;;;14.70;99.90;;;;;;5050483;28;20744;-48
2022/09/04 03:09:41;;;;;;;1.17;1.10;;;14.70;99.90;;;;;;5049681;28;20197;-48
2022/09/04 03:12:26;;;;;;;1.87;1.13;;;14.70;99.90;;;;;;5048760;28;20232;-48
2022/09/04 03:15:01;;;;;;;3.77;1.10;;;14.70;99.90;;;;;;5049596;28;20221;-48
2022/09/04 03:17:35;;;;;;;1.30;1.20;;;14.70;99.90;;;;;;5049364;28;20271;-48
2022/09/04 03:20:08;;;;;;;2.83;1.00;;;14.70;99.90;;;;;;5051794;28;20213;-47
2022/09/04 03:22:43;;;;;;;1.10;1.10;;;14.80;99.90;;;;;;5047979;28;20667;-47
2022/09/04 03:25:33;;;;;;;0.83;0.83;;;14.80;99.90;;;;;;5049554;28;20197;-47
2022/09/04 03:28:01;;;;;;;0.93;0.93;;;14.80;99.90;;;;;;5052160;28;20202;-47
2022/09/04 03:30:32;;;;;;;1.50;0.90;;;14.80;99.90;;;;;;5053166;28;20197;-47
2022/09/04 03:33:07;;;;;;;1.53;1.40;;;14.80;99.90;;;;;;5049465;28;20206;-47
2022/09/04 03:35:40;;;;;;;1.67;1.03;;;14.80;99.90;;;;;;5049768;28;20557;-47
2022/09/04 03:38:20;;;;;;;1.10;1.07;;;14.80;99.90;;;;;;5053479;28;20255;-47
2022/09/04 03:40:56;;;;;;;1.67;1.57;;;14.90;99.90;;;;;;5053121;28;20294;-46
2022/09/04 03:43:45;;;;;;;1.50;1.20;;;14.90;99.90;;;;;;5049775;28;20204;-46
2022/09/04 03:46:26;;;;;;;3.70;1.20;;;14.90;99.90;;;;;;5052674;28;20287;-48
2022/09/04 03:49:16;;;;;;;3.13;1.23;;;14.90;99.90;;;;;;5047667;28;20209;-47
2022/09/04 03:51:53;;;;;;;1.50;1.43;;;14.90;99.90;;;;;;5049789;28;20201;-48
2022/09/04 03:54:36;;;;;;;5.17;1.20;;;15.00;99.90;;;;;;5052095;28;20197;-47
2022/09/04 03:57:24;;;;;;;1.50;1.40;;;15.00;99.90;;;;;;5052675;28;20275;-46
2022/09/04 04:00:05;;;;;;;1.80;1.20;;;15.00;99.90;;;;;;5052056;28;20194;-47
2022/09/04 04:02:50;;;;;;;1.47;1.47;;;14.90;99.90;;;;;;5049794;28;20245;-48
2022/09/04 04:05:26;;;;;;;1.97;1.33;;;14.90;99.90;;;;;;5050855;28;20288;-47
2022/09/04 04:08:08;;;;;;;1.77;1.07;;;14.90;99.90;;;;;;5052274;28;20221;-48
2022/09/04 04:10:49;;;;;;;1.00;1.00;;;14.90;99.90;;;;;;5051505;28;20613;-47
2022/09/04 04:13:34;;;;;;;1.80;1.20;;;14.90;99.90;;;;;;5049753;28;20659;-50
2022/09/04 04:16:18;;;;;;;1.47;1.37;;;14.90;99.90;;;;;;5049377;28;20279;-47
2022/09/04 04:19:05;;;;;;;1.10;1.10;;;14.90;99.90;;;;;;5049546;28;20202;-48
2022/09/04 04:21:54;;;;;;;1.00;0.90;;;15.00;99.90;;;;;;5051120;28;20206;-47
2022/09/04 04:24:53;;;;;;;1.23;1.23;;;14.90;99.90;;;;;;5053087;28;20216;-48
2022/09/04 04:27:36;;;;;;;5.90;1.40;;;14.90;99.90;;;;;;5047909;28;20733;-47
2022/09/04 04:30:07;;;;;;;1.77;1.67;;;14.90;99.90;;;;;;5048728;28;20255;-47
2022/09/04 04:33:09;;;;;;;1.87;1.20;;;15.00;99.90;;;;;;5051090;28;20205;-47
2022/09/04 04:35:44;;;;;;;1.53;1.27;;;15.00;99.90;;;;;;5048506;28;20209;-47
2022/09/04 04:38:38;;;;;;;1.03;1.03;;;14.90;99.90;;;;;;5049670;28;20193;-47
2022/09/04 04:41:23;;;;;;;1.20;1.20;;;14.90;99.90;;;;;;5050071;28;20260;-46
2022/09/04 04:44:03;;;;;;;1.13;1.13;;;14.90;99.90;;;;;;5049972;28;20194;-48
2022/09/04 04:46:44;;;;;;;2.00;1.30;;;14.90;99.90;;;;;;5048327;28;20214;-48
2022/09/04 04:49:41;;;;;;;1.70;1.60;;;14.90;99.90;;;;;;5051729;28;20197;-48
2022/09/04 04:52:36;;;;;;;1.30;1.20;;;15.00;99.90;;;;;;5049948;28;20601;-47
2022/09/04 04:55:22;;;;;;;3.43;1.60;;;15.00;99.90;;;;;;5042240;28;20615;-48
2022/09/04 04:58:13;;;;;;;0.97;0.97;;;15.00;99.90;;;;;;5051891;28;20229;-47
2022/09/04 05:00:45;;;;;;;1.63;1.30;;;14.90;99.90;;;;;;5049898;28;20193;-47
2022/09/04 05:03:24;;;;;;;1.43;1.33;;;14.90;99.90;;;;;;5047075;28;20217;-47
2022/09/04 05:06:01;;;;;;;1.30;1.20;;;14.90;99.90;;;;;;5047818;28;20225;-47
2022/09/04 05:08:37;;;;;;;1.00;0.90;;;15.00;99.90;;;;;;5050184;28;20198;-47
2022/09/04 05:11:16;;;;;;;2.07;1.60;;;15.00;99.90;;;;;;5050104;28;20193;-47
2022/09/04 05:13:56;;;;;;;2.20;1.40;;;15.10;99.90;;;;;;5051186;28;20212;-47
2022/09/04 05:16:32;;;;;;;2.07;1.07;;;15.10;99.90;;;;;;5047399;28;20660;-46
2022/09/04 05:19:07;;;;;;;1.30;1.30;;;15.20;99.90;;;;;;5046287;28;20685;-47
2022/09/04 05:21:39;;;;;;;1.70;1.27;;;15.30;99.90;;;;;;5047512;28;20201;-47
2022/09/04 05:24:14;;;;;;;2.97;1.47;;;15.40;99.90;;;;;;5048690;28;20277;-47
2022/09/04 05:26:48;;;;;;;2.73;1.40;;;15.40;99.90;;;;;;5050498;28;20584;-47
2022/09/04 05:29:21;;;;;;;1.03;0.93;;;15.40;99.90;;;;;;5051365;28;20201;-47
2022/09/04 05:31:55;;;;;;;1.73;1.00;;;15.50;99.90;;;;;;5047481;28;20271;-46
2022/09/04 05:34:32;;;;;;;1.40;1.40;;;15.50;99.90;;;;;;5031385;28;20289;-47
2022/09/04 05:37:10;;;;;;;1.53;1.33;;;15.50;99.90;;;;;;5044816;28;20701;-48
2022/09/04 05:39:49;;;;;;;1.30;1.20;;;15.60;99.90;;;;;;5047356;28;20198;-47
2022/09/04 05:42:41;;;;;;;1.70;1.60;;;15.60;99.90;;;;;;5047326;28;20201;-47
2022/09/04 05:45:20;;;;;;;1.50;1.50;;;15.60;99.90;;;;;;5050677;28;20247;-47
2022/09/04 05:47:58;;;;;;;2.77;1.30;;;15.80;99.90;;;;;;5046956;28;20275;-46
2022/09/04 05:50:50;;;;;;;1.40;1.37;;;16.60;99.90;;;;;;5044619;28;20193;-47
2022/09/04 05:53:53;;;;;;;1.00;1.00;;;17.70;99.90;;;;;;5049435;28;20289;-47
2022/09/04 05:56:47;;;;;;;1.47;1.20;;;18.70;99.90;;;;;;5047677;28;20710;-48
2022/09/04 05:59:56;;;;;;;1.00;1.00;;;18.70;99.90;;;;;;5039542;28;20204;-48
2022/09/04 06:03:03;;;;;;;1.20;1.10;;;18.30;99.90;;;;;;5032798;28;20203;-48
2022/09/04 06:05:43;;;;;;;2.40;1.23;;;18.10;99.90;;;;;;5047956;28;20197;-48
2022/09/04 06:08:26;;;;;;;1.03;0.80;;;18.30;99.90;;;;;;5047270;28;20232;-47
2022/09/04 06:11:05;;;;;;;1.57;0.80;;;19.00;99.90;;;;;;5050243;28;20627;-48
2022/09/04 06:13:54;;;;;;;1.03;1.03;;;19.80;99.90;;;;;;5047922;28;20782;-47
2022/09/04 06:16:36;;;;;;;1.40;1.30;;;20.80;99.90;;;;;;5040725;28;20605;-47
2022/09/04 06:19:38;;;;;;;1.67;1.07;;;22.00;99.90;;;;;;5035229;28;20206;-47
2022/09/04 06:22:32;;;;;;;2.03;1.20;;;22.20;99.90;;;;;;5040937;28;20455;-48
2022/09/04 06:25:39;;;;;;;1.30;0.80;;;21.20;99.90;;;;;;5048361;28;20201;-48
2022/09/04 06:28:34;;;;;;;4.27;1.20;;;20.40;99.90;;;;;;5041312;28;20324;-47
2022/09/04 06:31:12;;;;;;;1.70;1.17;;;20.20;99.90;;;;;;5047704;28;20285;-48
2022/09/04 06:33:56;;;;;;;0.73;0.73;;;20.90;99.90;;;;;;5044196;28;20202;-48
2022/09/04 06:36:57;;;;;;;1.70;0.97;;;21.10;99.90;;;;;;5041788;28;20237;-48
2022/09/04 06:39:43;;;;;;;0.70;0.70;;;20.80;99.90;;;;;;5031246;28;20197;-48
2022/09/04 06:42:26;;;;;;;1.80;1.40;;;20.40;99.90;;;;;;5040179;28;20263;-48
2022/09/04 06:45:11;;;;;;;1.10;0.73;;;19.80;99.90;;;;;;5050303;28;20205;-47
2022/09/04 06:48:07;;;;;;;1.00;1.00;;;19.50;99.90;;;;;;5045216;28;20268;-48
2022/09/04 06:50:45;;;;;;;2.83;1.20;;;19.30;99.90;;;;;;5049482;28;20202;-47
2022/09/04 06:53:30;;;;;;;2.10;0.97;;;19.90;99.90;;;;;;5049318;28;20217;-48
2022/09/04 06:56:09;;;;;;;1.10;1.10;;;21.50;99.90;;;;;;5052471;28;20283;-48
2022/09/04 06:58:58;;;;;;;0.90;0.90;;;22.50;99.90;;;;;;5052391;28;20594;-48
2022/09/04 07:01:39;;;;;;;0.70;0.70;;;23.10;99.90;;;;;;5048412;28;20284;-48
2022/09/04 07:04:14;;;;;;;1.27;1.10;;;22.40;99.90;;;;;;5051939;28;20206;-49
2022/09/04 07:06:54;;;;;;;3.40;1.17;;;21.70;99.90;;;;;;5048415;28;20220;-48
2022/09/04 07:09:27;;;;;;;1.60;1.27;;;21.00;99.90;;;;;;5052086;28;20635;-48
2022/09/04 07:12:32;;;;;;;0.77;0.77;;;20.40;99.90;;;;;;5052178;28;20202;-47
2022/09/04 07:15:25;;;;;;;0.97;0.97;;;20.00;99.90;;;;;;5048438;28;20202;-48
2022/09/04 07:18:03;;;;;;;1.00;1.00;;;20.70;99.90;;;;;;5049363;28;20228;-48
2022/09/04 07:20:36;;;;;;;0.80;0.80;;;21.80;99.90;;;;;;5052684;28;20734;-48
2022/09/04 07:23:22;;;;;;;1.03;0.90;;;23.20;99.90;;;;;;5047242;28;20599;-48
2022/09/04 07:25:59;;;;;;;0.80;0.80;;;24.40;99.90;;;;;;5053403;28;20202;-48
2022/09/04 07:28:38;;;;;;;2.73;0.90;;;25.30;99.90;;;;;;5049030;28;20224;-48
2022/09/04 07:31:11;;;;;;;0.50;0.50;;;25.90;99.90;;;;;;5051159;28;20216;-48
2022/09/04 07:33:45;;;;;;;0.90;0.90;;;26.60;99.90;;;;;;5049531;28;20205;-49
2022/09/04 07:36:18;;;;;;;0.90;0.90;;;27.00;99.90;;;;;;5045374;28;20307;-49
2022/09/04 07:38:52;;;;;;;0.70;0.70;;;27.50;99.90;;;;;;5047056;28;20233;-48
2022/09/04 07:41:29;;;;;;;2.13;0.85;;;27.70;99.90;;;;;;5052586;28;20618;-47
2022/09/04 07:44:04;;;;;;;2.38;0.68;;;27.80;99.90;;;;;;5053016;28;20197;-48
2022/09/04 07:46:43;;;;;;;1.80;0.80;;;27.80;99.90;;;;;;5050252;28;20221;-47
2022/09/04 07:49:17;;;;;;;0.70;0.70;;;27.50;99.90;;;;;;5048953;28;20216;-48
2022/09/04 07:51:53;;;;;;;0.80;0.80;;;27.80;99.90;;;;;;5048202;28;20201;-48
2022/09/04 07:54:54;;;;;;;1.45;0.93;;;28.20;99.90;;;;;;5048978;28;20201;-48
2022/09/04 07:57:41;;;;;;;1.90;1.10;;;28.10;99.90;;;;;;5046291;28;20224;-48
2022/09/04 08:00:12;;;;;;;2.75;1.25;;;28.50;99.90;;;;;;5048881;28;20206;-48
2022/09/04 08:03:03;;;;;;;0.77;0.77;;;28.90;99.90;;;;;;5048753;28;20250;-48
2022/09/04 08:05:32;;;;;;;0.82;0.82;;;28.70;99.90;;;;;;5050600;28;20198;-50
2022/09/04 08:08:29;;;;;;;1.38;0.60;;;28.90;99.90;;;;;;5048270;28;20539;-48
2022/09/04 08:11:41;;;;;;;0.88;0.77;;;29.00;99.90;;;;;;5050376;28;20224;-48
2022/09/04 08:14:25;;;;;;;0.60;0.60;;;29.30;99.90;;;;;;4980310;28;20258;-51
2022/09/04 08:17:06;;;;;;;0.82;0.80;;;28.70;99.90;;;;;;5053509;28;20699;-48
2022/09/04 08:19:41;;;;;;;1.38;1.33;;;29.20;99.90;;;;;;5049744;28;20201;-49
2022/09/04 08:22:14;;;;;;;1.15;0.80;;;29.10;99.90;;;;;;5051613;28;20233;-50
2022/09/04 08:25:05;;;;;;;0.68;0.68;;;28.70;99.90;;;;;;5048105;28;20284;-50
2022/09/04 08:28:05;;;;;;;2.53;0.80;;;28.50;99.90;;;;;;5056367;28;20216;-49
2022/09/04 08:30:42;;;;;;;0.90;0.90;;;28.20;99.90;;;;;;5046865;28;20568;-50
2022/09/04 08:33:50;;;;;;;1.48;0.60;;;28.20;99.90;;;;;;5045369;28;20197;-49
2022/09/04 08:36:27;;;;;;;0.77;0.77;;;28.40;99.90;;;;;;5047598;28;20233;-50
2022/09/04 08:39:09;;;;;;;1.15;1.08;;;27.90;99.90;;;;;;5045082;28;20222;-50
2022/09/04 08:42:06;;;;;;;1.45;0.98;;;28.20;99.90;;;;;;5047368;28;20703;-49
2022/09/04 08:45:10;;;;;;;0.98;0.90;;;28.20;99.90;;;;;;5044458;28;20624;-49
2022/09/04 08:48:22;;;;;;;1.10;0.70;;;28.70;99.90;;;;;;5048456;28;20209;-49
2022/09/04 08:51:28;;;;;;;0.73;0.73;;;28.70;99.90;;;;;;5011319;28;20782;-50
2022/09/04 08:54:47;;;;;;;1.15;1.00;;;28.70;99.90;;;;;;5055629;28;20255;-49
2022/09/04 08:57:44;;;;;;;1.13;1.00;;;28.30;99.90;;;;;;4990382;28;20236;-48
2022/09/04 09:00:15;;;;;;;0.85;0.85;;;28.60;99.90;;;;;;4978271;28;20204;-47
2022/09/04 09:03:09;;;;;;;1.00;1.00;;;29.50;99.90;;;;;;5033094;28;20210;-50
2022/09/04 09:06:05;;;;;;;0.85;0.85;;;30.10;99.90;;;;;;5048532;28;20248;-51
2022/09/04 09:09:17;;;;;;;1.13;0.98;;;29.60;99.90;;;;;;5050285;28;20487;-50
2022/09/04 09:12:28;;;;;;;2.08;0.63;;;29.30;99.90;;;;;;5030700;28;20198;-51
2022/09/04 09:15:15;;;;;;;0.70;0.70;;;28.70;99.90;;;;;;5044722;28;20248;-50
2022/09/04 09:17:59;;;;;;;1.00;1.00;;;28.70;99.90;;;;;;5046091;28;20230;-51
2022/09/04 09:20:29;;;;;;;0.70;0.70;;;27.60;99.90;;;;;;5048819;28;20216;-48
2022/09/04 09:23:16;;;;;;;0.63;0.63;;;26.70;99.90;;;;;;5049321;28;20871;-50
2022/09/04 09:25:55;;;;;;;0.60;0.60;;;26.40;99.90;;;;;;5051460;28;20730;-51
2022/09/04 09:31:53;;;;;;;0.73;0.73;;;26.20;99.90;;;;;;5068096;27;20575;-50
2022/09/04 09:35:21;;;;;;;0.60;0.60;;;25.50;99.90;;;;;;5047526;28;20201;-49
2022/09/04 09:38:35;;;;;;;2.85;0.75;;;25.20;99.90;;;;;;4985057;28;20216;-50
2022/09/04 09:41:33;;;;;;;1.25;0.80;;;25.10;99.90;;;;;;4943201;29;20201;-49
2022/09/04 09:44:28;;;;;;;0.80;0.80;;;24.90;99.90;;;;;;5045695;28;20202;-50
2022/09/04 09:47:31;;;;;;;2.72;1.23;;;24.70;99.90;;;;;;5068015;28;20255;-50
2022/09/04 09:50:29;;;;;;;2.75;0.80;;;25.40;99.90;;;;;;5045583;28;20267;-50
2022/09/04 09:53:33;;;;;;;0.75;0.75;;;25.80;99.90;;;;;;5044977;28;20229;-50
2022/09/04 09:56:41;;;;;;;0.90;0.90;;;26.10;99.90;;;;;;5046866;28;20402;-50
2022/09/04 09:59:41;;;;;;;2.70;0.95;;;26.60;99.90;;;;;;5029699;28;20238;-50
2022/09/04 10:02:50;;;;;;;1.15;0.82;;;26.10;99.90;;;;;;5041173;28;20610;-49
2022/09/04 10:06:08;;;;;;;0.82;0.82;;;25.80;99.90;;;;;;5046590;28;20202;-50
2022/09/04 10:09:15;;;;;;;1.55;1.35;;;25.80;99.90;;;;;;5046470;28;20240;-51
2022/09/04 10:12:18;;;;;;;0.95;0.95;;;26.60;99.90;;;;;;5033762;28;20210;-50
2022/09/04 10:15:05;;;;;;;1.30;1.30;;;27.60;99.90;;;;;;5044458;28;20210;-50
2022/09/04 10:18:17;;;;;;;1.15;1.15;;;28.20;99.90;;;;;;5041061;28;20295;-49
2022/09/04 10:21:11;;;;;;;1.42;1.27;;;28.00;99.90;;;;;;5045218;28;20190;-49
2022/09/04 10:24:16;;;;;;;2.08;1.23;;;27.40;99.90;;;;;;5039414;28;20206;-50
2022/09/04 10:27:16;;;;;;;2.25;2.08;;;28.00;99.90;;;;;;5043529;28;20209;-50
2022/09/04 10:30:11;;;;;;;3.17;3.08;;;28.60;99.90;;;;;;5047328;28;20218;-49
2022/09/04 10:33:10;;;;;;;3.10;2.90;;;28.40;99.90;;;;;;5043203;28;20666;-49
2022/09/04 10:35:51;;;;;;;2.47;2.28;;;28.60;99.90;;;;;;5024386;28;20206;-50
2022/09/04 10:40:34;;;;;;;2.92;2.72;;;28.80;99.90;;;;;;5045436;28;20210;-49
2022/09/04 10:41:56;;;;;;;1.50;1.50;;;28.80;99.90;;;;;;5034446;28;20225;-50
2022/09/04 10:44:53;;;;;;;2.45;2.35;;;29.70;99.90;;;;;;5026372;28;20199;-51
2022/09/04 10:47:52;;;;;;;2.92;2.78;;;29.20;99.90;;;;;;5030108;28;20580;-50
2022/09/04 10:50:35;;;;;;;2.55;2.05;;;29.00;99.90;;;;;;5029191;28;20229;-50
2022/09/04 10:53:20;;;;;;;2.78;2.67;;;28.90;99.90;;;;;;5037242;28;20286;-50
2022/09/04 10:56:00;;;;;;;2.92;2.78;;;28.90;99.90;;;;;;5013359;28;20716;-49
2022/09/04 10:58:38;;;;;;;2.50;2.40;;;28.60;99.90;;;;;;5030371;28;20229;-50
2022/09/04 11:01:54;;;;;;;2.33;2.22;;;28.40;99.90;;;;;;5032346;28;20644;-50
2022/09/04 11:04:57;;;;;;;2.28;2.13;;;28.00;99.90;;;;;;5016253;28;20234;-50
2022/09/04 11:07:42;;;;;;;3.03;2.72;;;27.40;99.90;;;;;;5013896;28;20219;-49
2022/09/04 11:10:20;;;;;;;3.38;2.08;;;26.90;99.90;;;;;;5025069;28;20637;-50
2022/09/04 11:13:26;;;;;;;3.33;2.15;;;26.80;99.90;;;;;;5033389;28;20313;-51
2022/09/04 11:16:10;;;;;;;1.70;1.63;;;26.60;99.90;;;;;;5033323;28;20272;-50
2022/09/04 11:19:09;;;;;;;2.13;2.10;;;26.50;99.90;;;;;;5033298;28;20202;-50
2022/09/04 11:22:26;;;;;;;1.73;1.73;;;26.30;99.90;;;;;;5020536;28;20564;-49
2022/09/04 11:25:27;;;;;;;1.45;1.40;;;26.20;99.90;;;;;;5031652;28;20265;-50
2022/09/04 11:28:11;;;;;;;6.00;1.65;;;26.10;99.90;;;;;;5033486;28;20257;-50
2022/09/04 11:30:54;;;;;;;1.85;1.70;;;26.20;99.90;;;;;;5030489;28;20430;-49
2022/09/04 11:33:55;;;;;;;1.83;1.73;;;26.00;99.90;;;;;;5031684;28;20206;-50
2022/09/04 11:36:57;;;;;;;1.47;1.37;;;25.80;99.90;;;;;;5011871;28;20298;-49
2022/09/04 11:40:02;;;;;;;2.90;1.30;;;25.70;99.90;;;;;;5013674;28;20650;-49
2022/09/04 11:42:55;;;;;;;1.38;1.33;;;25.80;99.90;;;;;;5031702;28;20211;-50
2022/09/04 11:45:58;;;;;;;2.15;2.05;;;25.80;99.90;;;;;;5032954;28;20206;-49
2022/09/04 11:49:00;;;;;;;1.40;1.30;;;25.50;99.90;;;;;;5032165;28;20351;-50
2022/09/04 11:52:02;;;;;;;1.27;1.27;;;25.50;99.90;;;;;;5013045;28;20661;-49
2022/09/04 11:55:17;;;;;;;1.47;1.47;;;25.20;99.90;;;;;;5011413;28;20210;-49
2022/09/04 11:58:07;;;;;;;1.70;1.60;;;25.10;99.90;;;;;;5029823;28;20705;-50
2022/09/04 12:00:43;;;;;;;1.30;1.30;;;25.30;99.90;;;;;;5015245;28;20203;-49
2022/09/04 12:03:44;;;;;;;1.70;1.53;;;25.40;99.90;;;;;;5030290;28;20229;-49
2022/09/04 12:06:33;;;;;;;1.40;1.40;;;25.50;99.90;;;;;;5032061;28;20223;-49
2022/09/04 12:09:21;;;;;;;1.03;1.03;;;25.40;99.90;;;;;;5031654;28;20206;-49
2022/09/04 12:12:15;;;;;;;1.03;1.03;;;25.10;99.90;;;;;;5030463;28;20214;-49
2022/09/04 12:15:22;;;;;;;1.50;1.50;;;25.00;99.90;;;;;;5032084;28;20202;-50
2022/09/04 12:18:23;;;;;;;1.63;1.53;;;25.10;99.90;;;;;;5028417;28;20337;-49
2022/09/04 12:21:24;;;;;;;3.03;2.83;;;25.20;99.90;;;;;;5017732;28;20734;-49
2022/09/04 12:24:33;;;;;;;2.40;1.30;;;25.10;99.90;;;;;;5031594;28;20206;-49
2022/09/04 12:27:32;;;;;;;1.47;1.47;;;25.00;99.90;;;;;;4986416;28;20255;-49
2022/09/04 12:30:14;;;;;;;2.20;1.27;;;25.10;99.90;;;;;;5018480;28;20226;-49
2022/09/04 12:33:04;;;;;;;1.17;1.17;;;25.20;99.90;;;;;;5020769;28;20252;-49
2022/09/04 12:36:04;;;;;;;1.30;1.30;;;25.10;99.90;;;;;;5034180;28;20268;-50
2022/09/04 12:39:22;;;;;;;1.73;1.30;;;25.10;99.90;;;;;;5026720;28;20234;-51
2022/09/04 12:41:56;;;;;;;1.57;1.53;;;24.90;99.90;;;;;;5031450;28;20652;-49
2022/09/04 12:44:37;;;;;;;1.40;1.40;;;24.80;99.90;;;;;;5030842;28;20194;-50
2022/09/04 12:47:31;;;;;;;1.50;1.40;;;24.70;99.90;;;;;;5026900;28;20229;-49
2022/09/04 12:50:19;;;;;;;1.37;1.20;;;24.70;99.90;;;;;;5031344;28;20202;-49
2022/09/04 12:53:01;;;;;;;1.27;1.27;;;24.70;99.90;;;;;;5025958;28;20672;-49
2022/09/04 12:55:37;;;;;;;1.43;1.33;;;24.70;99.90;;;;;;5031182;28;20661;-50
2022/09/04 12:58:17;;;;;;;1.20;1.20;;;24.70;99.90;;;;;;5031434;28;20206;-49
2022/09/04 13:00:58;;;;;;;2.77;1.30;;;24.80;99.90;;;;;;5029094;28;20199;-49
2022/09/04 13:03:38;;;;;;;1.33;1.30;;;24.90;99.90;;;;;;5019152;28;20686;-50
2022/09/04 13:06:24;;;;;;;1.40;1.40;;;25.00;99.90;;;;;;5028948;28;20603;-50
2022/09/04 13:09:04;;;;;;;0.90;0.90;;;25.00;99.90;;;;;;5033517;28;20209;-49
2022/09/04 13:11:43;;;;;;;1.60;1.10;;;25.00;99.90;;;;;;5027665;28;20272;-50
2022/09/04 13:14:33;;;;;;;1.70;0.93;;;25.10;99.90;;;;;;5033131;28;20202;-50
2022/09/04 13:17:05;;;;;;;1.90;1.20;;;25.10;99.90;;;;;;5029746;28;20277;-50
2022/09/04 13:19:44;;;;;;;1.50;1.50;;;25.20;99.90;;;;;;5029940;28;20280;-50
2022/09/04 13:22:25;;;;;;;1.60;1.50;;;25.10;99.90;;;;;;5027531;28;20552;-49
2022/09/04 13:25:03;;;;;;;1.10;1.10;;;25.10;99.90;;;;;;5028713;28;20268;-51
2022/09/04 13:27:42;;;;;;;1.70;1.40;;;25.10;99.90;;;;;;5030448;28;20264;-50
2022/09/04 13:30:20;;;;;;;1.23;1.20;;;25.10;99.90;;;;;;5029483;28;20249;-50
2022/09/04 13:33:01;;;;;;;0.90;0.90;;;25.10;99.90;;;;;;5028747;28;20217;-49
2022/09/04 13:35:49;;;;;;;1.07;1.07;;;25.10;99.90;;;;;;5029965;28;20351;-49
2022/09/04 13:38:41;;;;;;;1.47;1.33;;;25.00;99.90;;;;;;5033836;28;20294;-50
2022/09/04 13:41:33;;;;;;;1.00;1.00;;;25.00;99.90;;;;;;5026371;28;20668;-49
2022/09/04 13:44:39;;;;;;;0.93;0.93;;;24.80;99.90;;;;;;5009866;28;20198;-49
2022/09/04 13:47:09;;;;;;;0.83;0.83;;;24.80;99.90;;;;;;5023936;28;20224;-49
2022/09/04 13:49:40;;;;;;;0.90;0.90;;;24.90;99.90;;;;;;5029966;28;20198;-50
2022/09/04 13:52:14;;;;;;;0.90;0.90;;;24.90;99.90;;;;;;5028802;28;20666;-50
2022/09/04 13:54:51;;;;;;;0.90;0.90;;;24.90;99.90;;;;;;5029993;28;20266;-49
2022/09/04 13:57:22;;;;;;;1.20;1.20;;;24.90;99.90;;;;;;5022431;28;20328;-50
2022/09/04 13:59:52;;;;;;;1.57;1.20;;;24.90;99.90;;;;;;5030297;28;20244;-49
2022/09/04 14:02:24;;;;;;;1.40;0.70;;;24.90;99.90;;;;;;5029722;28;20289;-53
2022/09/04 14:04:55;;;;;;;1.27;1.17;;;25.00;99.90;;;;;;5029907;28;20707;-50
2022/09/04 14:07:28;;;;;;;1.37;1.27;;;25.00;99.90;;;;;;5030391;28;20210;-49
2022/09/04 14:09:58;;;;;;;1.07;1.07;;;24.90;99.90;;;;;;5029306;28;20213;-49
2022/09/04 14:12:49;;;;;;;0.83;0.70;;;24.90;99.90;;;;;;5029328;28;20306;-50
2022/09/04 14:15:43;;;;;;;0.70;0.70;;;24.90;99.90;;;;;;5028724;28;20201;-49
2022/09/04 14:18:30;;;;;;;1.60;0.70;;;25.00;99.90;;;;;;5035142;28;20206;-49
2022/09/04 14:21:02;;;;;;;0.90;0.90;;;25.10;99.90;;;;;;5031434;28;20282;-50
2022/09/04 14:23:43;;;;;;;1.00;1.00;;;25.10;99.90;;;;;;5033097;28;20230;-49
2022/09/04 14:26:19;;;;;;;1.13;0.90;;;25.00;99.90;;;;;;5033349;28;20289;-50